Austin Bergstrom International Airport
KAUS : now visible

Airfield :











YOU CAN JOIN US ON...

 
LOGIN :

Register | Disclaimer

   EN    FR    IT 

 









Legend :    VFR   Marginal VFR   IFR   Intensive IFR   Very Intensive IFR
Visi :
Ceiling :
>= 8 km
>= 3000ft
5 to 8 km
1000 to 3000 ft
1500m to 5 km
500 to 1000 ft
800 to 1500m
200 to 500 ft
< 800m
< 200 ft
Symbols :   Thunderstorms  Fog  Heavy snow  Heavy precipitations  Wind > 20 kt






- Airport Elevation : 542 ft
- IATA code : AUS


KAUS - Austin Bergstrom International

CURRENT METAR :
  • 231415Z 15005KT 10SM OVC013 13/10 A3009 RMK AO2 T01330100

EXPIRED METARs :
  • 231353Z 14005KT 10SM OVC015 13/10 A3009 RMK AO2 SLP190 T01280100
  • 231253Z 13004KT 10SM OVC016 12/09 A3008 RMK AO2 SLP186 T01220094
  • 231153Z 15004KT 10SM OVC016 12/09 A3008 RMK AO2 SLP186 T01220094 10128 20122 56017

TAF KAUS
Valid from the 23 at 12:00 until the 24 at 18:00 UTC


231138Z 2312/2418 15003KT P6SM OVC015
FM231800 17010KT P6SM OVC018
FM240600 18008KT P6SM OVC007
FM240900 21006KT P6SM VCSH OVC006
FM241400 31011KT P6SM SCT040



MET'MAP, your aeronautical weather chart ! - Copyright ORBIFLY December 2007 - Disclaimer

ORBIFLY MET'MAP TEAM :

Programming & Development : Alexandra Zaïnal
Concept & original design : Baudouin d'Aumeries
Assistance for programming : Marc-Olivier Méhu
Technical & hardware support : Manuel Goepfert

Contact : metmap@orbifly.com




SOURCES & CREDITS :

   NOAA       Earth
Advisory